Time;durP1;ratioP1;P1;durP2;ratioP2;P2;SDS_P1;SDS_P2;PMS_P1;PMS_P2;Temp;Humidity;BMP_temperature;BMP_pressure;BME280_temperature;BME280_humidity;BME280_pressure;Samples;Min_cycle;Max_cycle;Signal;HPM_P1;HPM_P2
2023/06/05 00:00:09;;;;;;;6.25;2.83;;;;;;;15.94;73.78;102119.88;5014550;28;20078;-63
2023/06/05 00:02:39;;;;;;;6.47;3.15;;;;;;;15.87;74.11;102102.81;5013970;28;20045;-62
2023/06/05 00:05:09;;;;;;;7.00;3.00;;;;;;;15.83;74.33;102111.91;4996914;28;20054;-62
2023/06/05 00:07:37;;;;;;;8.20;3.30;;;;;;;15.82;74.54;102104.75;5051788;28;20068;-61
2023/06/05 00:10:06;;;;;;;6.07;2.88;;;;;;;15.69;75.25;102117.06;5034295;28;20111;-62
2023/06/05 00:12:35;;;;;;;7.47;3.05;;;;;;;15.74;74.48;102109.69;5035023;28;20115;-63
2023/06/05 00:15:04;;;;;;;7.85;3.17;;;;;;;15.65;75.15;102105.78;5019279;28;20076;-64
2023/06/05 00:17:32;;;;;;;5.55;2.78;;;;;;;15.72;74.96;102108.31;5036368;28;20041;-63
2023/06/05 00:20:00;;;;;;;5.30;2.88;;;;;;;15.71;74.85;102110.22;5031893;28;20493;-64
2023/06/05 00:22:28;;;;;;;9.40;3.20;;;;;;;15.74;75.16;102109.69;5032328;28;20042;-64
2023/06/05 00:24:57;;;;;;;6.35;2.70;;;;;;;15.62;75.57;102111.81;5033304;28;20045;-62
2023/06/05 00:27:24;;;;;;;7.05;2.80;;;;;;;15.57;76.09;102111.81;5015831;28;20096;-63
2023/06/05 00:29:52;;;;;;;10.10;3.40;;;;;;;15.49;76.15;102107.66;5030476;28;20526;-63
2023/06/05 00:32:30;;;;;;;8.88;3.17;;;;;;;15.39;76.89;102106.78;5034041;28;20118;-61
2023/06/05 00:34:57;;;;;;;7.63;2.80;;;;;;;15.42;76.82;102109.03;5036323;28;20108;-63
2023/06/05 00:37:26;;;;;;;6.30;2.67;;;;;;;15.45;77.00;102111.22;5034813;28;20045;-68
2023/06/05 00:39:54;;;;;;;6.05;2.90;;;;;;;15.48;76.63;102116.16;5038851;28;20517;-63
2023/06/05 00:42:22;;;;;;;7.10;2.95;;;;;;;15.33;77.41;102106.78;5041557;28;20056;-62
2023/06/05 00:44:50;;;;;;;7.18;3.00;;;;;;;15.41;77.12;102107.34;5044057;28;20075;-62
2023/06/05 00:47:17;;;;;;;7.18;2.97;;;;;;;15.42;77.01;102103.53;5033060;28;20425;-62
2023/06/05 00:49:45;;;;;;;9.55;3.42;;;;;;;15.31;77.45;102106.22;5009903;28;20056;-62
2023/06/05 00:52:13;;;;;;;6.80;3.30;;;;;;;15.27;77.49;102105.13;5042642;28;20077;-63
2023/06/05 00:54:41;;;;;;;6.30;2.80;;;;;;;15.04;78.80;102111.03;5066718;28;20076;-62
2023/06/05 00:57:10;;;;;;;7.28;2.88;;;;;;;15.03;79.41;102106.63;5051664;28;20053;-61
2023/06/05 00:59:38;;;;;;;8.15;3.33;;;;;;;15.10;78.97;102115.44;5031658;28;20056;-63
2023/06/05 01:02:06;;;;;;;6.80;3.10;;;;;;;15.06;78.94;102112.44;5003706;28;20398;-63
2023/06/05 01:04:36;;;;;;;8.90;3.47;;;;;;;15.09;79.25;102105.56;5036198;28;20136;-63
2023/06/05 01:07:05;;;;;;;7.45;3.40;;;;;;;15.17;78.60;102104.22;5033916;28;20077;-63
2023/06/05 01:09:33;;;;;;;7.25;3.00;;;;;;;15.12;78.90;102096.78;5035951;28;20041;-64
2023/06/05 01:12:12;;;;;;;9.05;3.72;;;;;;;15.04;79.28;102111.03;5036382;28;20519;-64
2023/06/05 01:14:45;;;;;;;5.15;2.92;;;;;;;15.00;79.74;102110.72;5017889;28;20100;-63
2023/06/05 01:17:14;;;;;;;6.55;3.10;;;;;;;15.05;79.63;102102.53;5026971;28;20103;-62
2023/06/05 01:19:43;;;;;;;7.97;3.38;;;;;;;15.14;78.59;102094.63;5003316;28;20145;-63
2023/06/05 01:22:12;;;;;;;5.78;2.88;;;;;;;15.03;79.70;102096.50;5018323;28;20052;-62
2023/06/05 01:24:41;;;;;;;7.68;3.40;;;;;;;14.91;80.03;102093.97;5034952;28;20433;-65
2023/06/05 01:27:19;;;;;;;6.60;3.30;;;;;;;14.85;80.31;102097.75;5032982;28;20052;-64
2023/06/05 01:30:02;;;;;;;8.35;3.30;;;;;;;14.76;80.97;102099.34;5014394;28;20048;-63
2023/06/05 01:32:48;;;;;;;7.25;3.50;;;;;;;14.70;81.30;102103.16;5031810;28;20053;-64
2023/06/05 01:35:17;;;;;;;6.65;3.20;;;;;;;14.72;81.45;102097.38;5015578;28;20143;-65
2023/06/05 01:37:48;;;;;;;7.15;3.25;;;;;;;14.83;81.39;102099.13;5016186;28;20050;-64
2023/06/05 01:40:21;;;;;;;6.45;3.25;;;;;;;14.94;80.86;102100.03;5004642;28;20065;-63
2023/06/05 01:42:50;;;;;;;5.50;3.28;;;;;;;14.97;80.38;102102.22;5051429;28;20052;-63
2023/06/05 01:45:18;;;;;;;7.38;3.25;;;;;;;14.92;80.54;102097.53;4985571;28;20053;-64
2023/06/05 01:47:48;;;;;;;8.98;3.42;;;;;;;14.92;80.43;102094.78;5015159;28;20054;-63
2023/06/05 01:50:16;;;;;;;6.82;3.42;;;;;;;14.79;81.26;102093.34;5037532;28;20124;-69
2023/06/05 01:52:46;;;;;;;6.35;3.38;;;;;;;14.73;81.18;102088.91;5034272;28;20517;-64
2023/06/05 01:55:16;;;;;;;8.43;3.60;;;;;;;14.69;81.89;102088.59;5049330;28;20104;-62
2023/06/05 01:57:45;;;;;;;10.73;3.75;;;;;;;14.64;82.00;102085.00;5014264;28;20056;-62
2023/06/05 02:00:14;;;;;;;8.35;3.45;;;;;;;14.60;82.42;102083.88;5015861;28;20513;-63
2023/06/05 02:02:42;;;;;;;9.80;3.92;;;;;;;14.69;82.13;102088.59;5017891;28;20053;-62
2023/06/05 02:05:10;;;;;;;5.45;3.28;;;;;;;14.64;82.27;102082.25;5034304;28;20084;-63
2023/06/05 02:07:49;;;;;;;6.35;3.35;;;;;;;14.60;82.75;102086.59;5035392;28;20049;-64
2023/06/05 02:10:18;;;;;;;7.32;3.47;;;;;;;14.64;82.43;102077.59;5032339;28;20181;-63
2023/06/05 02:12:47;;;;;;;9.77;3.85;;;;;;;14.63;82.06;102075.13;5044216;28;20051;-63
2023/06/05 02:15:15;;;;;;;8.70;3.72;;;;;;;14.61;82.07;102078.13;5018197;28;20486;-63
2023/06/05 02:17:53;;;;;;;9.35;4.15;;;;;;;14.57;82.68;102067.94;5034474;28;20052;-63
2023/06/05 02:20:25;;;;;;;6.18;3.35;;;;;;;14.54;82.63;102065.75;5017636;28;20052;-63
2023/06/05 02:22:54;;;;;;;7.63;3.83;;;;;;;14.44;83.16;102071.94;5033115;28;20132;-65
2023/06/05 02:25:26;;;;;;;6.55;3.70;;;;;;;14.35;83.63;102077.09;5035408;28;20383;-63
2023/06/05 02:27:56;;;;;;;10.02;3.90;;;;;;;14.20;84.65;102076.97;5031185;28;20398;-64
2023/06/05 02:30:23;;;;;;;10.43;4.60;;;;;;;14.04;85.34;102076.81;5031848;28;20680;-62
2023/06/05 02:33:00;;;;;;;7.63;3.60;;;;;;;14.04;86.64;102071.34;5013670;28;20498;-64
2023/06/05 02:35:29;;;;;;;7.20;3.50;;;;;;;14.11;86.17;102073.88;5014318;28;20477;-63
2023/06/05 02:37:57;;;;;;;6.97;3.80;;;;;;;14.24;85.53;102065.22;5030593;28;20129;-64
2023/06/05 02:40:25;;;;;;;7.50;3.67;;;;;;;14.29;85.08;102067.19;5024612;28;20481;-63
2023/06/05 02:42:55;;;;;;;7.50;4.05;;;;;;;14.38;84.55;102062.03;5039477;28;20044;-62
2023/06/05 02:45:23;;;;;;;9.73;4.20;;;;;;;14.37;84.08;102063.13;5034437;28;20060;-63
2023/06/05 02:47:50;;;;;;;5.78;3.58;;;;;;;14.40;84.51;102057.94;5034509;28;20414;-64
2023/06/05 02:50:19;;;;;;;7.32;4.00;;;;;;;14.48;83.40;102065.69;5032343;28;20049;-63
2023/06/05 02:52:51;;;;;;;6.40;3.63;;;;;;;14.32;83.83;102060.34;5049121;28;20117;-64
2023/06/05 02:55:29;;;;;;;7.28;4.13;;;;;;;14.17;84.77;102061.06;5015563;28;20132;-62
2023/06/05 02:57:59;;;;;;;7.53;4.07;;;;;;;14.13;85.04;102057.19;5028377;28;20045;-65
2023/06/05 03:00:40;;;;;;;7.70;3.92;;;;;;;14.07;85.95;102054.41;5051204;28;20060;-63
2023/06/05 03:03:13;;;;;;;10.98;3.95;;;;;;;14.09;86.24;102050.56;5023787;28;20087;-63
2023/06/05 03:05:42;;;;;;;6.60;3.75;;;;;;;14.06;85.96;102052.72;5050948;28;20100;-62
2023/06/05 03:08:13;;;;;;;7.80;4.03;;;;;;;14.05;86.12;102062.06;5035529;28;20041;-62
2023/06/05 03:10:41;;;;;;;6.88;3.67;;;;;;;14.05;85.94;102063.97;5033285;28;20061;-63
2023/06/05 03:13:10;;;;;;;9.55;4.22;;;;;;;14.16;85.72;102056.66;5033111;28;20045;-62
2023/06/05 03:15:38;;;;;;;7.18;3.90;;;;;;;14.17;85.39;102069.28;5032471;28;20103;-65
2023/06/05 03:18:10;;;;;;;11.50;4.28;;;;;;;14.20;85.13;102063.28;5017004;28;20132;-68
2023/06/05 03:20:39;;;;;;;9.43;4.28;;;;;;;14.24;84.68;102061.66;5047062;28;20303;-63
2023/06/05 03:23:08;;;;;;;9.38;4.00;;;;;;;14.12;85.05;102059.09;5033249;28;20045;-63
2023/06/05 03:25:36;;;;;;;8.18;4.40;;;;;;;14.14;84.71;102061.56;5033208;28;20046;-65
2023/06/05 03:28:05;;;;;;;9.18;4.35;;;;;;;13.95;85.36;102061.97;5033143;28;20042;-64
2023/06/05 03:30:33;;;;;;;7.28;4.22;;;;;;;13.85;86.24;102059.13;5033521;28;20079;-63
2023/06/05 03:33:02;;;;;;;8.48;4.50;;;;;;;13.87;87.02;102054.22;5024258;28;20537;-65
2023/06/05 03:35:32;;;;;;;9.45;5.00;;;;;;;13.94;85.78;102049.34;5012923;28;20461;-64
2023/06/05 03:38:04;;;;;;;8.13;4.32;;;;;;;13.75;87.30;102050.81;4981847;28;20049;-62
2023/06/05 03:40:32;;;;;;;8.15;4.63;;;;;;;13.73;86.76;102044.75;5007945;28;20052;-62
2023/06/05 03:43:01;;;;;;;8.68;4.47;;;;;;;13.73;86.91;102039.28;5032391;28;20045;-63
2023/06/05 03:45:32;;;;;;;9.35;4.57;;;;;;;13.76;87.08;102052.47;5024737;28;20072;-65
2023/06/05 03:48:01;;;;;;;9.00;4.72;;;;;;;13.60;87.45;102052.31;5016615;28;20128;-63
2023/06/05 03:50:32;;;;;;;7.53;4.38;;;;;;;13.62;88.41;102047.41;5031179;28;20073;-63
2023/06/05 03:53:03;;;;;;;8.98;4.70;;;;;;;13.62;87.80;102050.16;5028570;28;20053;-65
2023/06/05 03:55:49;;;;;;;10.10;5.10;;;;;;;13.56;88.45;102053.91;5049031;28;20052;-62
2023/06/05 03:58:21;;;;;;;8.30;4.88;;;;;;;13.43;88.76;102043.38;5006653;28;20041;-68
2023/06/05 04:00:53;;;;;;;9.18;4.80;;;;;;;13.43;89.12;102043.38;5031891;28;20099;-63
2023/06/05 04:03:21;;;;;;;7.85;4.53;;;;;;;13.49;89.15;102042.31;5045785;28;20071;-63
2023/06/05 04:05:53;;;;;;;8.30;4.80;;;;;;;13.41;89.38;102042.78;5033077;28;20053;-63
2023/06/05 04:08:21;;;;;;;7.47;4.75;;;;;;;13.48;88.85;102040.69;5025400;28;20041;-62
2023/06/05 04:10:48;;;;;;;10.40;4.72;;;;;;;13.48;88.39;102037.94;5013164;28;20053;-62
2023/06/05 04:13:17;;;;;;;10.20;5.25;;;;;;;13.36;89.27;102042.75;5029962;28;20050;-62
2023/06/05 04:15:46;;;;;;;9.70;4.78;;;;;;;13.33;89.93;102037.78;5016169;28;20054;-64
2023/06/05 04:18:13;;;;;;;8.55;4.75;;;;;;;13.38;89.20;102035.09;5021600;28;20053;-63
2023/06/05 04:20:41;;;;;;;9.10;4.60;;;;;;;13.33;90.20;102037.78;5012471;28;20057;-63
2023/06/05 04:23:10;;;;;;;9.10;5.25;;;;;;;13.27;90.24;102036.03;5004809;28;20042;-65
2023/06/05 04:25:45;;;;;;;7.30;4.65;;;;;;;13.16;91.47;102038.66;5034506;28;20050;-65
2023/06/05 04:28:13;;;;;;;11.05;4.93;;;;;;;13.17;90.85;102045.78;5024948;28;20051;-64
2023/06/05 04:30:40;;;;;;;7.78;4.60;;;;;;;13.10;91.23;102044.31;5034303;28;20054;-63
2023/06/05 04:33:08;;;;;;;8.48;4.63;;;;;;;13.14;91.48;102046.28;5023888;28;20107;-63
2023/06/05 04:35:38;;;;;;;9.68;5.18;;;;;;;13.18;91.67;102050.19;5036876;28;20096;-63
2023/06/05 04:38:06;;;;;;;9.65;5.30;;;;;;;13.32;90.29;102047.06;5019318;28;20049;-62
2023/06/05 04:40:34;;;;;;;10.25;5.32;;;;;;;13.33;89.89;102048.75;5019974;28;20053;-63
2023/06/05 04:43:02;;;;;;;11.18;5.70;;;;;;;13.37;90.70;102052.59;5035067;28;20103;-64
2023/06/05 04:45:29;;;;;;;7.80;4.95;;;;;;;13.43;90.33;102059.78;5035940;28;20504;-63
2023/06/05 04:47:57;;;;;;;8.90;5.38;;;;;;;13.38;89.88;102057.00;5028492;28;20072;-62
2023/06/05 04:50:27;;;;;;;9.52;5.43;;;;;;;13.30;91.19;102057.44;5032367;28;20056;-62
2023/06/05 04:53:10;;;;;;;11.00;5.60;;;;;;;13.45;90.87;102054.91;5046524;28;20110;-63
2023/06/05 04:55:40;;;;;;;9.52;5.65;;;;;;;13.45;90.23;102063.09;5023733;28;20041;-63
2023/06/05 04:58:08;;;;;;;11.75;5.88;;;;;;;13.48;90.25;102070.81;5032836;28;20518;-61
2023/06/05 05:00:35;;;;;;;9.20;5.60;;;;;;;13.45;90.55;102060.38;5042751;28;20081;-63
2023/06/05 05:03:05;;;;;;;9.05;5.65;;;;;;;13.52;89.97;102069.22;5033739;28;20049;-60
2023/06/05 05:05:35;;;;;;;9.80;5.63;;;;;;;13.42;90.85;102061.72;5034341;28;20054;-61
2023/06/05 05:08:05;;;;;;;11.90;6.13;;;;;;;13.45;90.55;102068.59;5021735;28;20052;-62
2023/06/05 05:10:33;;;;;;;9.93;5.75;;;;;;;13.52;90.16;102066.47;5017233;28;20054;-62
2023/06/05 05:13:01;;;;;;;11.48;6.20;;;;;;;13.35;91.42;102073.94;5015893;28;20053;-64
2023/06/05 05:15:30;;;;;;;10.50;6.35;;;;;;;13.36;91.83;102070.94;5047585;28;20107;-63
2023/06/05 05:18:03;;;;;;;9.40;5.28;;;;;;;13.37;92.21;102069.88;5018410;28;20053;-66
2023/06/05 05:20:32;;;;;;;12.82;5.63;;;;;;;13.37;91.16;102069.03;5034762;28;20128;-68
2023/06/05 05:23:01;;;;;;;10.38;5.95;;;;;;;13.30;92.24;102060.19;5035801;28;20049;-62
2023/06/05 05:25:29;;;;;;;10.00;5.78;;;;;;;13.30;92.13;102062.91;5036168;28;20517;-63
2023/06/05 05:27:57;;;;;;;8.55;5.10;;;;;;;13.32;91.56;102058.84;5028161;28;20046;-62
2023/06/05 05:30:25;;;;;;;10.30;6.10;;;;;;;13.39;92.52;102064.94;5029399;28;20497;-63
2023/06/05 05:32:54;;;;;;;11.00;6.50;;;;;;;13.53;91.50;102054.44;5019204;28;20046;-63
2023/06/05 05:35:22;;;;;;;9.43;5.72;;;;;;;13.55;90.21;102052.25;5019365;28;20050;-63
2023/06/05 05:37:50;;;;;;;11.52;6.97;;;;;;;13.52;90.95;102058.25;5002508;28;20501;-63
2023/06/05 05:40:18;;;;;;;11.02;6.90;;;;;;;13.43;91.62;102059.78;5008360;28;20069;-63
2023/06/05 05:42:46;;;;;;;10.50;6.38;;;;;;;13.47;91.28;102055.47;5059583;28;20050;-62
2023/06/05 05:45:22;;;;;;;10.39;6.50;;;;;;;13.35;91.54;102054.78;4597236;28;10002771;-67
2023/06/05 05:47:49;;;;;;;11.57;6.35;;;;;;;13.46;91.19;102058.44;5033062;28;20080;-64
2023/06/05 05:50:17;;;;;;;11.68;6.63;;;;;;;13.57;91.01;102061.06;5036970;28;20076;-66
2023/06/05 05:52:47;;;;;;;11.00;6.55;;;;;;;13.57;90.82;102066.53;5036883;28;20057;-64
2023/06/05 05:55:15;;;;;;;11.15;6.60;;;;;;;13.55;90.93;102074.16;5037678;28;20045;-64
2023/06/05 05:57:42;;;;;;;9.93;5.95;;;;;;;13.58;89.92;102073.66;5020443;28;20049;-67
2023/06/05 06:00:12;;;;;;;11.38;6.43;;;;;;;13.62;90.08;102069.31;5038348;28;20584;-67
2023/06/05 06:02:41;;;;;;;11.38;7.07;;;;;;;13.63;89.67;102070.94;5034274;28;20072;-67
2023/06/05 06:05:09;;;;;;;11.32;6.30;;;;;;;13.55;90.31;102068.69;5011501;28;20058;-63
2023/06/05 06:07:37;;;;;;;10.95;6.90;;;;;;;13.60;89.70;102074.22;5013955;28;20062;-66
2023/06/05 06:10:05;;;;;;;11.88;7.00;;;;;;;13.62;90.35;102085.75;5043701;28;20157;-64
2023/06/05 06:12:33;;;;;;;10.63;6.22;;;;;;;13.68;90.65;102080.31;5022904;28;20076;-67
2023/06/05 06:15:01;;;;;;;11.30;6.95;;;;;;;13.79;90.24;102084.81;5032439;28;20244;-64
2023/06/05 06:17:29;;;;;;;13.88;7.80;;;;;;;13.77;89.57;102081.50;5031530;28;20120;-65
2023/06/05 06:19:57;;;;;;;14.25;7.10;;;;;;;13.78;89.20;102083.16;5032325;28;20050;-63
2023/06/05 06:22:26;;;;;;;11.25;6.43;;;;;;;13.66;89.36;102085.22;5032027;28;20136;-63
2023/06/05 06:24:54;;;;;;;14.18;7.30;;;;;;;13.75;89.22;102089.16;5032808;28;20054;-66
2023/06/05 06:27:22;;;;;;;10.85;6.28;;;;;;;13.71;89.01;102090.75;5033366;28;20501;-66
2023/06/05 06:30:03;;;;;;;15.27;6.07;;;;;;;13.83;88.50;102086.78;5028927;28;20172;-64
2023/06/05 06:32:31;;;;;;;21.48;7.30;;;;;;;13.95;87.84;102089.38;5031091;28;20045;-64
2023/06/05 06:34:59;;;;;;;10.45;6.22;;;;;;;13.93;88.15;102086.06;5028968;28;20049;-64
2023/06/05 06:37:28;;;;;;;12.32;6.35;;;;;;;13.98;87.86;102086.09;5022632;28;20053;-64
2023/06/05 06:39:56;;;;;;;11.18;6.53;;;;;;;14.03;86.79;102094.38;5025106;28;20038;-63
2023/06/05 06:42:24;;;;;;;20.52;6.45;;;;;;;14.06;86.98;102091.09;5027211;28;20057;-63
2023/06/05 06:45:06;;;;;;;11.52;5.72;;;;;;;14.01;86.93;102088.31;5010914;28;20135;-63
2023/06/05 06:47:34;;;;;;;10.18;6.43;;;;;;;14.10;86.52;102090.59;5029866;28;20061;-64
2023/06/05 06:50:02;;;;;;;12.93;6.00;;;;;;;14.10;86.12;102090.59;4996349;28;20046;-63
2023/06/05 06:52:30;;;;;;;12.85;6.55;;;;;;;13.98;85.41;102091.59;5039669;28;20057;-64
2023/06/05 06:54:58;;;;;;;13.50;5.53;;;;;;;13.98;86.29;102088.03;5015538;28;20049;-64
2023/06/05 06:57:26;;;;;;;12.80;6.10;;;;;;;14.04;85.91;102092.44;5028271;28;20068;-64
2023/06/05 06:59:53;;;;;;;10.77;6.20;;;;;;;14.07;86.19;102098.25;5043159;28;20057;-64
2023/06/05 07:02:23;;;;;;;9.70;5.40;;;;;;;14.11;85.92;102097.72;5036145;28;20045;-65
2023/06/05 07:04:53;;;;;;;13.63;6.40;;;;;;;14.14;85.44;102095.31;5012350;28;20091;-64
2023/06/05 07:07:21;;;;;;;15.80;6.38;;;;;;;14.20;85.58;102109.88;5010335;28;20053;-65
2023/06/05 07:09:51;;;;;;;11.90;5.82;;;;;;;14.28;85.30;102098.41;5013653;28;20050;-63
2023/06/05 07:12:22;;;;;;;12.82;5.50;;;;;;;14.40;84.88;102099.06;5014115;28;20089;-62
2023/06/05 07:14:50;;;;;;;17.35;7.25;;;;;;;14.47;84.14;102091.44;5013810;28;20049;-63
2023/06/05 07:17:18;;;;;;;13.48;6.80;;;;;;;14.54;83.89;102096.72;5002332;28;20424;-64
2023/06/05 07:19:46;;;;;;;35.03;11.02;;;;;;;14.58;83.59;102100.59;5039572;28;20045;-63
2023/06/05 07:22:13;;;;;;;16.48;7.22;;;;;;;14.54;83.50;102101.41;5026409;28;20108;-62
2023/06/05 07:24:41;;;;;;;14.73;6.38;;;;;;;14.52;83.86;102104.34;5013292;28;20088;-64
2023/06/05 07:27:09;;;;;;;13.40;5.93;;;;;;;14.47;83.94;102107.88;5012947;28;20173;-63
2023/06/05 07:29:37;;;;;;;11.10;5.78;;;;;;;14.54;83.81;102106.88;5026935;28;20045;-63
2023/06/05 07:32:06;;;;;;;11.52;5.65;;;;;;;14.68;83.32;102108.09;5019967;28;20048;-62
2023/06/05 07:34:34;;;;;;;11.32;5.80;;;;;;;14.81;82.15;102102.13;5034198;28;20049;-64
2023/06/05 07:37:03;;;;;;;12.95;6.07;;;;;;;14.83;81.92;102105.44;5033679;28;20053;-64
2023/06/05 07:39:31;;;;;;;12.38;6.32;;;;;;;14.75;81.87;102111.41;5024195;28;20081;-64
2023/06/05 07:41:58;;;;;;;11.23;5.80;;;;;;;14.76;82.21;102098.53;5029661;28;20053;-63
2023/06/05 07:44:26;;;;;;;14.82;6.25;;;;;;;14.88;82.04;102101.88;5015571;28;20080;-62
2023/06/05 07:46:54;;;;;;;13.32;6.65;;;;;;;14.98;82.04;102098.38;5013555;28;20058;-64
2023/06/05 07:49:23;;;;;;;13.85;6.32;;;;;;;15.05;82.11;102101.69;4997463;28;20099;-63
2023/06/05 07:51:51;;;;;;;17.45;6.53;;;;;;;15.09;81.77;102097.34;5031458;28;20567;-63
2023/06/05 07:54:20;;;;;;;13.00;6.35;;;;;;;15.10;81.45;102108.06;5033941;28;20053;-61
2023/06/05 07:56:50;;;;;;;12.30;6.55;;;;;;;15.05;81.95;102112.69;5014355;28;20403;-63
2023/06/05 07:59:24;;;;;;;12.32;7.40;;;;;;;15.06;82.06;102119.84;5014244;28;20460;-60
2023/06/05 08:01:52;;;;;;;10.85;6.32;;;;;;;15.10;82.30;102105.31;5012625;28;20046;-63
2023/06/05 08:04:21;;;;;;;11.43;6.05;;;;;;;15.15;82.15;102100.94;5012791;28;20054;-63
2023/06/05 08:06:49;;;;;;;12.05;5.95;;;;;;;15.24;81.40;102096.56;5015298;28;20057;-63
2023/06/05 08:09:17;;;;;;;12.18;6.78;;;;;;;15.28;81.35;102092.22;5016152;28;20052;-64
2023/06/05 08:11:45;;;;;;;11.70;6.45;;;;;;;15.26;81.33;102094.41;5016555;28;20076;-61
2023/06/05 08:14:13;;;;;;;14.63;6.32;;;;;;;15.29;81.72;102089.19;5033715;28;20053;-62
2023/06/05 08:16:40;;;;;;;15.27;6.13;;;;;;;15.37;80.86;102096.09;5033148;28;20507;-66
2023/06/05 08:19:08;;;;;;;14.25;6.63;;;;;;;15.46;80.15;102096.38;5030445;28;20053;-61
2023/06/05 08:21:37;;;;;;;18.05;5.78;;;;;;;15.48;80.16;102078.53;5032757;28;20030;-62
2023/06/05 08:24:04;;;;;;;14.68;7.00;;;;;;;15.58;79.56;102079.66;5033136;28;20107;-63
2023/06/05 08:26:32;;;;;;;14.27;6.30;;;;;;;15.62;79.90;102076.09;5041339;28;20048;-65
2023/06/05 08:29:00;;;;;;;13.40;6.53;;;;;;;15.66;79.13;102068.97;5015543;28;20104;-64
2023/06/05 08:31:28;;;;;;;13.80;6.47;;;;;;;15.63;79.50;102077.75;5031210;28;20524;-62
2023/06/05 08:33:56;;;;;;;15.57;6.22;;;;;;;15.66;79.34;102074.47;5013837;28;20057;-64
2023/06/05 08:36:24;;;;;;;13.43;6.40;;;;;;;15.68;80.10;102072.28;5013649;28;20042;-62
2023/06/05 08:38:52;;;;;;;14.63;6.40;;;;;;;15.77;80.51;102075.34;5032459;28;20407;-63
2023/06/05 08:41:20;;;;;;;14.48;6.50;;;;;;;15.84;79.23;102069.59;5032436;28;20545;-63
2023/06/05 08:43:48;;;;;;;14.10;6.25;;;;;;;15.89;79.46;102075.06;5034139;28;20096;-63
2023/06/05 08:46:17;;;;;;;12.77;6.15;;;;;;;15.92;78.12;102055.28;5015996;28;20049;-61
2023/06/05 08:48:46;;;;;;;14.77;5.97;;;;;;;15.94;77.63;102061.34;5014299;28;20112;-63
2023/06/05 08:51:16;;;;;;;11.13;5.85;;;;;;;16.01;77.71;102056.41;5011716;28;20416;-63
2023/06/05 08:54:04;;;;;;;10.13;5.80;;;;;;;16.14;76.96;102066.03;5014143;28;20062;-62
2023/06/05 08:56:33;;;;;;;12.32;5.35;;;;;;;16.25;77.08;102064.09;5022053;28;20049;-63
2023/06/05 08:59:01;;;;;;;11.38;6.80;;;;;;;16.24;76.66;102062.47;5040191;28;20554;-63
2023/06/05 09:01:32;;;;;;;14.50;6.50;;;;;;;16.21;76.59;102060.25;5039129;28;20053;-60
2023/06/05 09:04:02;;;;;;;14.68;7.15;;;;;;;16.19;77.02;102066.03;5054748;28;20062;-63
2023/06/05 09:06:32;;;;;;;12.77;6.85;;;;;;;16.21;75.72;102069.34;5028884;28;20042;-62
2023/06/05 09:09:01;;;;;;;15.98;6.22;;;;;;;16.24;76.23;102073.47;5059794;28;20046;-62
2023/06/05 09:11:30;;;;;;;12.90;6.00;;;;;;;16.33;76.79;102061.63;5043689;28;20053;-62
2023/06/05 09:14:00;;;;;;;10.27;5.95;;;;;;;16.47;75.67;102061.88;5025293;28;20516;-62
2023/06/05 09:16:45;;;;;;;13.52;6.47;;;;;;;16.56;74.78;102060.19;5018306;28;20103;-63
2023/06/05 09:19:13;;;;;;;17.45;6.30;;;;;;;16.58;75.92;102060.75;5016565;28;20498;-63
2023/06/05 09:21:46;;;;;;;12.98;6.43;;;;;;;16.62;76.83;102047.28;5015376;28;20057;-61
2023/06/05 09:24:19;;;;;;;13.77;6.13;;;;;;;16.73;74.55;102053.56;5027941;28;20045;-63
2023/06/05 09:27:08;;;;;;;14.98;6.53;;;;;;;16.80;74.91;102054.94;5035856;28;20099;-61
2023/06/05 09:29:38;;;;;;;12.35;6.00;;;;;;;16.86;74.89;102052.16;5036000;28;20049;-62
2023/06/05 09:32:10;;;;;;;17.15;6.78;;;;;;;16.90;75.32;102062.34;5036727;28;20045;-62
2023/06/05 09:34:39;;;;;;;14.60;7.47;;;;;;;16.90;75.12;102064.28;5035157;28;20429;-63
2023/06/05 09:37:09;;;;;;;13.60;6.80;;;;;;;16.84;74.15;102049.72;5016582;28;20042;-62
2023/06/05 09:39:38;;;;;;;17.23;6.97;;;;;;;16.85;75.24;102051.34;5015450;28;20046;-61
2023/06/05 09:42:06;;;;;;;11.00;5.93;;;;;;;16.88;74.43;102042.53;5015735;28;20111;-61
2023/06/05 09:44:36;;;;;;;13.50;6.32;;;;;;;16.91;75.84;102044.75;5016917;28;20046;-63
2023/06/05 09:47:09;;;;;;;15.75;6.40;;;;;;;16.99;74.90;102046.09;5035717;28;20057;-64
2023/06/05 09:49:40;;;;;;;10.68;5.68;;;;;;;16.99;74.18;102032.31;5021050;28;20144;-64
2023/06/05 09:52:11;;;;;;;14.15;6.22;;;;;;;17.06;74.99;102040.28;5034789;28;20092;-62
2023/06/05 09:54:41;;;;;;;13.38;6.38;;;;;;;17.13;75.15;102049.06;5034867;28;20517;-63
2023/06/05 09:57:10;;;;;;;12.27;6.15;;;;;;;17.17;74.29;102042.72;5018430;28;20453;-64
2023/06/05 09:59:46;;;;;;;13.50;6.00;;;;;;;17.22;74.46;102041.84;5018717;28;20125;-64
2023/06/05 10:02:16;;;;;;;14.98;6.43;;;;;;;17.31;74.51;102050.34;5034699;28;20046;-62
2023/06/05 10:04:49;;;;;;;15.05;6.75;;;;;;;17.30;74.86;102033.00;5032176;28;20104;-66
2023/06/05 10:07:17;;;;;;;13.00;6.05;;;;;;;17.35;75.59;102029.38;5030506;28;20041;-64
2023/06/05 10:09:49;;;;;;;14.65;6.68;;;;;;;17.43;73.85;102029.59;5062376;28;20053;-62
2023/06/05 10:12:17;;;;;;;15.30;6.28;;;;;;;17.55;73.24;102036.69;5034702;28;20093;-62
2023/06/05 10:14:45;;;;;;;13.13;6.22;;;;;;;17.55;72.85;102036.69;5031257;28;20080;-63
2023/06/05 10:17:14;;;;;;;13.98;6.28;;;;;;;17.54;73.47;102035.88;5032604;28;20049;-63
2023/06/05 10:19:43;;;;;;;17.73;6.53;;;;;;;17.67;72.60;102034.41;5029099;28;20182;-63
2023/06/05 10:22:12;;;;;;;13.55;6.47;;;;;;;17.69;72.57;102032.19;5020594;28;20456;-71
2023/06/05 10:24:51;;;;;;;15.70;6.82;;;;;;;17.76;70.65;102035.44;5024612;28;20052;-62
2023/06/05 10:27:38;;;;;;;14.82;5.90;;;;;;;17.81;71.01;102029.94;5032598;28;20052;-63
2023/06/05 10:30:43;;;;;;;15.25;6.78;;;;;;;17.95;70.81;102029.28;5033320;28;20045;-63
2023/06/05 10:33:23;;;;;;;11.32;5.93;;;;;;;17.92;71.36;102024.31;5034329;28;20077;-63
2023/06/05 10:36:05;;;;;;;15.93;5.95;;;;;;;18.03;70.53;102026.72;5034063;28;20057;-64
2023/06/05 10:38:34;;;;;;;17.95;6.00;;;;;;;18.14;70.38;102038.50;5031670;28;20453;-63
2023/06/05 10:41:03;;;;;;;13.23;5.78;;;;;;;18.13;69.51;102019.47;5014982;28;20057;-60
2023/06/05 10:43:47;;;;;;;13.88;6.25;;;;;;;18.14;69.45;102032.97;5032165;28;20059;-63
2023/06/05 10:46:28;;;;;;;14.25;5.97;;;;;;;18.10;70.32;102015.34;5033998;28;20050;-64
2023/06/05 10:49:13;;;;;;;12.60;5.53;;;;;;;18.13;70.26;102014.75;5050470;28;20501;-62
2023/06/05 10:51:48;;;;;;;10.07;5.40;;;;;;;18.20;69.51;102011.66;5032412;28;20045;-64
2023/06/05 10:54:22;;;;;;;11.57;6.20;;;;;;;18.39;67.95;102015.34;5034306;28;20117;-64
2023/06/05 10:56:56;;;;;;;14.80;5.90;;;;;;;18.44;68.31;102011.72;5035003;28;20459;-63
2023/06/05 10:59:31;;;;;;;14.02;6.47;;;;;;;18.41;68.21;102018.63;5034271;28;20477;-64
2023/06/05 11:02:19;;;;;;;13.98;6.13;;;;;;;18.40;68.54;102013.41;5034003;28;20111;-62
2023/06/05 11:05:04;;;;;;;11.77;6.05;;;;;;;18.44;68.90;102006.19;5031948;28;20041;-63
2023/06/05 11:07:33;;;;;;;11.17;5.30;;;;;;;18.54;68.04;102006.06;5013939;28;20045;-65
2023/06/05 11:10:05;;;;;;;10.57;5.07;;;;;;;18.63;67.84;102001.56;5035165;28;20389;-65
2023/06/05 11:12:35;;;;;;;12.57;5.97;;;;;;;18.73;67.26;101995.91;5017515;28;20037;-63
2023/06/05 11:15:05;;;;;;;15.77;5.70;;;;;;;18.77;67.13;101990.66;5033212;28;20128;-64
2023/06/05 11:17:37;;;;;;;13.60;5.72;;;;;;;18.86;66.62;101988.09;5017728;28;20053;-65
2023/06/05 11:20:08;;;;;;;12.07;5.82;;;;;;;18.99;65.48;101994.81;5034769;28;20559;-63
2023/06/05 11:22:53;;;;;;;12.27;5.40;;;;;;;19.00;64.24;101989.00;5033477;28;20103;-63
2023/06/05 11:25:24;;;;;;;12.48;5.55;;;;;;;19.02;64.02;101975.69;5033666;28;20045;-65
2023/06/05 11:27:56;;;;;;;12.48;4.97;;;;;;;19.00;64.66;101977.09;5034441;28;20096;-66
2023/06/05 11:30:28;;;;;;;17.23;5.47;;;;;;;19.13;64.10;101974.44;5031434;28;20486;-63
2023/06/05 11:33:15;;;;;;;12.15;6.28;;;;;;;19.19;62.55;101975.19;5034626;28;20044;-63